Time;durP1;ratioP1;P1;durP2;ratioP2;P2;SDS_P1;SDS_P2;PMS_P1;PMS_P2;Temp;Humidity;BMP_temperature;BMP_pressure;BME280_temperature;BME280_humidity;BME280_pressure;Samples;Min_cycle;Max_cycle;Signal;HPM_P1;HPM_P2
2021/04/27 00:00:16;;;;;;;20.70;13.05;;;;;;;1.15;68.39;100859.77;1633210;84;25918;-73
2021/04/27 00:02:45;;;;;;;22.02;12.43;;;;;;;1.14;68.40;100860.23;1617529;85;25912;-74
2021/04/27 00:05:16;;;;;;;22.75;12.60;;;;;;;1.12;68.45;100851.61;1648766;84;26489;-74
2021/04/27 00:07:44;;;;;;;20.82;11.93;;;;;;;1.13;68.36;100856.41;1655645;84;28028;-73
2021/04/27 00:10:15;;;;;;;19.48;10.95;;;;;;;1.11;68.28;100853.05;1637240;84;25783;-74
2021/04/27 00:12:43;;;;;;;19.55;11.55;;;;;;;1.08;68.11;100851.49;1683839;84;25731;-73
2021/04/27 00:15:15;;;;;;;23.38;12.78;;;;;;;1.05;68.15;100853.03;1661642;84;25820;-74
2021/04/27 00:17:43;;;;;;;25.12;14.03;;;;;;;1.05;68.50;100846.44;1659977;84;25948;-74
2021/04/27 00:20:12;;;;;;;26.45;13.48;;;;;;;1.05;68.95;100843.80;1659789;84;28165;-74
2021/04/27 00:22:39;;;;;;;22.10;13.05;;;;;;;1.06;68.77;100851.25;1660936;84;26097;-73
2021/04/27 00:25:09;;;;;;;21.35;12.95;;;;;;;1.05;68.91;100845.62;1632700;84;25770;-74
2021/04/27 00:27:37;;;;;;;23.67;13.65;;;;;;;1.04;68.93;100844.78;1637161;84;26261;-73
2021/04/27 00:30:08;;;;;;;23.92;14.68;;;;;;;1.01;69.07;100846.80;1635327;84;27062;-73
2021/04/27 00:32:35;;;;;;;24.60;13.83;;;;;;;0.97;69.48;100842.25;1635595;84;27527;-73
2021/04/27 00:35:03;;;;;;;28.02;14.93;;;;;;;0.92;69.53;100848.36;1660832;84;25919;-74
2021/04/27 00:37:31;;;;;;;24.98;14.47;;;;;;;0.89;69.83;100847.77;1659863;84;25846;-74
2021/04/27 00:39:58;;;;;;;24.90;14.50;;;;;;;0.85;69.91;100849.81;1635556;84;25938;-74
2021/04/27 00:42:35;;;;;;;23.20;14.83;;;;;;;0.81;70.00;100846.20;1640204;84;25778;-74
2021/04/27 00:45:07;;;;;;;27.80;16.27;;;;;;;0.81;70.06;100846.20;1686834;84;30197;-74
2021/04/27 00:47:35;;;;;;;25.30;16.15;;;;;;;0.81;69.88;100847.05;1659140;84;25819;-73
2021/04/27 00:50:07;;;;;;;33.60;19.65;;;;;;;0.83;69.96;100848.25;1638685;84;25794;-74
2021/04/27 00:52:36;;;;;;;28.52;16.73;;;;;;;0.86;70.00;100843.56;1630925;84;26124;-73
2021/04/27 00:55:05;;;;;;;30.77;17.57;;;;;;;0.85;69.92;100847.17;1670422;84;26212;-73
2021/04/27 00:57:33;;;;;;;27.22;16.05;;;;;;;0.85;69.81;100847.64;1660865;84;27419;-73
2021/04/27 01:00:00;;;;;;;23.85;14.75;;;;;;;0.84;69.81;100839.36;1639063;84;26284;-74
2021/04/27 01:02:28;;;;;;;26.30;15.15;;;;;;;0.82;69.78;100836.00;1639965;84;25770;-74
2021/04/27 01:04:57;;;;;;;25.32;15.28;;;;;;;0.79;69.87;100837.11;1659963;84;25805;-73
2021/04/27 01:07:29;;;;;;;23.07;13.85;;;;;;;0.77;69.98;100841.63;1660141;84;25821;-74
2021/04/27 01:10:04;;;;;;;22.75;12.88;;;;;;;0.71;69.65;100835.52;1663477;84;27545;-73
2021/04/27 01:12:39;;;;;;;18.52;11.08;;;;;;;0.67;69.71;100837.56;1685771;84;25771;-73
2021/04/27 01:15:15;;;;;;;22.52;12.60;;;;;;;0.66;69.72;100839.01;1660015;84;25595;-74
2021/04/27 01:17:44;;;;;;;24.00;12.30;;;;;;;0.62;69.90;100831.80;1638016;84;26032;-74
2021/04/27 01:20:19;;;;;;;25.30;12.75;;;;;;;0.59;70.18;100834.68;1633561;84;25818;-74
2021/04/27 01:23:23;;;;;;;20.60;13.28;;;;;;;0.59;69.94;100837.31;1839776;77;25758;-73
2021/04/27 01:26:09;;;;;;;21.25;13.22;;;;;;;0.48;70.17;100837.77;1762877;78;26079;-73
2021/04/27 01:28:48;;;;;;;24.52;13.62;;;;;;;0.49;70.28;100832.88;1808942;77;25354;-73
2021/04/27 01:31:16;;;;;;;23.27;13.70;;;;;;;0.40;70.45;100838.36;1727806;80;25977;-74
2021/04/27 01:33:45;;;;;;;19.80;12.98;;;;;;;0.40;70.61;100841.00;1747344;80;28304;-73
2021/04/27 01:36:13;;;;;;;24.40;12.58;;;;;;;0.36;70.39;100836.92;1702386;80;25889;-74
2021/04/27 01:38:43;;;;;;;22.42;12.50;;;;;;;0.33;70.36;100840.24;1742051;80;25699;-74
2021/04/27 01:41:11;;;;;;;20.68;11.97;;;;;;;0.29;70.56;100838.80;1723658;81;26505;-73
2021/04/27 01:43:40;;;;;;;21.20;12.13;;;;;;;0.25;70.51;100838.20;1683095;84;25403;-74
2021/04/27 01:46:08;;;;;;;19.65;12.18;;;;;;;0.25;70.49;100842.16;1632307;85;27644;-73
2021/04/27 01:48:38;;;;;;;20.23;11.95;;;;;;;0.23;70.50;100849.33;1638879;85;25903;-74
2021/04/27 01:51:09;;;;;;;27.80;12.53;;;;;;;0.21;70.43;100851.24;1632086;84;26475;-73
2021/04/27 01:53:54;;;;;;;19.42;11.53;;;;;;;0.16;70.31;100844.15;1683387;83;25833;-74
2021/04/27 01:56:22;;;;;;;24.32;13.45;;;;;;;0.15;70.42;100842.45;1656257;84;26235;-74
2021/04/27 01:58:50;;;;;;;19.80;11.18;;;;;;;0.12;70.51;100840.06;1650416;83;27555;-73
2021/04/27 02:01:20;;;;;;;27.75;12.88;;;;;;;0.11;70.30;100842.83;1665224;83;25800;-74
2021/04/27 02:03:49;;;;;;;19.62;11.50;;;;;;;0.07;70.36;100841.34;1685420;83;25743;-74
2021/04/27 02:06:17;;;;;;;19.27;11.57;;;;;;;0.03;70.46;100842.53;1685867;83;25737;-74
2021/04/27 02:08:53;;;;;;;17.62;12.03;;;;;;;0.00;70.55;100839.17;1639938;84;26145;-73
2021/04/27 02:11:21;;;;;;;20.75;11.75;;;;;;;-0.03;70.25;100835.94;1638709;84;28322;-73
2021/04/27 02:13:49;;;;;;;23.87;13.15;;;;;;;-0.10;70.19;100826.80;1673025;84;26110;-74
2021/04/27 02:16:19;;;;;;;19.75;11.80;;;;;;;-0.11;70.18;100822.52;1633264;84;25800;-74
2021/04/27 02:18:55;;;;;;;18.52;11.53;;;;;;;-0.11;70.18;100822.52;1637810;84;25862;-73
2021/04/27 02:21:23;;;;;;;21.15;12.05;;;;;;;-0.06;70.42;100828.25;1649868;84;26085;-74
2021/04/27 02:24:13;;;;;;;16.65;10.68;;;;;;;-0.03;70.46;100834.16;1838922;77;25725;-73
2021/04/27 02:26:43;;;;;;;20.23;12.60;;;;;;;-0.10;70.35;100833.39;1790361;79;26030;-74
2021/04/27 02:29:24;;;;;;;20.30;12.00;;;;;;;-0.06;70.36;100826.94;1834740;77;25716;-74
2021/04/27 02:31:52;;;;;;;16.85;10.75;;;;;;;-0.13;70.41;100827.86;1770725;79;25652;-73
2021/04/27 02:34:23;;;;;;;18.15;11.43;;;;;;;-0.12;70.49;100828.24;1763248;79;28432;-74
2021/04/27 02:36:52;;;;;;;19.45;10.85;;;;;;;-0.12;70.22;100830.88;1740031;79;26541;-73
2021/04/27 02:39:22;;;;;;;20.40;12.53;;;;;;;-0.14;70.09;100829.30;1771440;80;25804;-73
2021/04/27 02:41:50;;;;;;;17.10;10.35;;;;;;;-0.20;69.99;100827.98;1757372;80;25882;-73
2021/04/27 02:44:40;;;;;;;18.92;11.12;;;;;;;-0.20;69.93;100822.71;1809831;77;26239;-74
2021/04/27 02:47:08;;;;;;;21.82;12.05;;;;;;;-0.28;69.85;100828.98;1663958;82;26459;-74
2021/04/27 02:49:36;;;;;;;19.52;12.43;;;;;;;-0.28;69.84;100826.86;1697423;81;28428;-73
2021/04/27 02:52:05;;;;;;;24.87;12.05;;;;;;;-0.28;69.83;100821.09;1645075;84;26081;-73
2021/04/27 02:54:34;;;;;;;17.85;11.43;;;;;;;-0.29;69.51;100823.84;1648044;83;25995;-74
2021/04/27 02:57:02;;;;;;;23.38;13.53;;;;;;;-0.29;69.51;100823.84;1664972;83;25912;-73
2021/04/27 02:59:31;;;;;;;22.10;13.15;;;;;;;-0.29;69.89;100822.06;1670964;83;25933;-74
2021/04/27 03:01:59;;;;;;;21.93;11.83;;;;;;;-0.33;70.03;100822.39;1650236;85;28633;-73
2021/04/27 03:04:27;;;;;;;22.32;12.00;;;;;;;-0.39;69.90;100811.01;1628010;85;25719;-74
2021/04/27 03:07:07;;;;;;;18.98;11.38;;;;;;;-0.28;69.99;100822.41;1802823;77;25595;-74
2021/04/27 03:09:36;;;;;;;20.12;12.15;;;;;;;-0.32;70.12;100829.36;1736025;81;26152;-74
2021/04/27 03:12:05;;;;;;;19.37;12.15;;;;;;;-0.33;70.26;100827.19;1742742;80;28223;-73
2021/04/27 03:14:34;;;;;;;18.30;11.75;;;;;;;-0.33;70.15;100828.50;1697919;80;26101;-74
2021/04/27 03:17:02;;;;;;;23.92;13.22;;;;;;;-0.32;70.27;100830.17;1712333;82;25932;-73
2021/04/27 03:19:29;;;;;;;24.30;13.62;;;;;;;-0.33;70.01;100829.83;1726071;80;25479;-74
2021/04/27 03:22:12;;;;;;;32.33;17.10;;;;;;;-0.27;70.15;100829.37;1799824;77;25636;-74
2021/04/27 03:24:40;;;;;;;33.75;17.92;;;;;;;-0.34;70.35;100828.12;1748411;79;25385;-77
2021/04/27 03:27:08;;;;;;;37.00;17.85;;;;;;;-0.30;70.51;100828.27;1773840;79;28418;-74
2021/04/27 03:29:45;;;;;;;35.25;18.67;;;;;;;-0.26;70.45;100825.80;1792651;77;25742;-73
2021/04/27 03:32:13;;;;;;;33.73;19.02;;;;;;;-0.32;70.34;100822.27;1780986;78;26395;-74
2021/04/27 03:34:42;;;;;;;39.88;18.98;;;;;;;-0.32;70.25;100826.72;1794542;78;27517;-73
2021/04/27 03:37:10;;;;;;;36.13;19.17;;;;;;;-0.32;70.22;100825.41;1756062;78;25749;-73
2021/04/27 03:39:37;;;;;;;35.80;18.70;;;;;;;-0.33;69.94;100831.14;1738429;80;26189;-73
2021/04/27 03:42:06;;;;;;;35.92;18.98;;;;;;;-0.37;69.91;100833.63;1731454;80;25742;-72
2021/04/27 03:44:34;;;;;;;34.10;18.27;;;;;;;-0.37;69.98;100831.47;1730483;81;25959;-74
2021/04/27 03:47:03;;;;;;;35.92;17.40;;;;;;;-0.36;70.25;100826.09;1721409;82;27649;-73
2021/04/27 03:49:31;;;;;;;32.25;17.07;;;;;;;-0.36;70.25;100826.09;1717105;81;25732;-74
2021/04/27 03:51:58;;;;;;;32.98;17.62;;;;;;;-0.37;70.43;100820.47;1730656;81;26322;-75
2021/04/27 03:54:26;;;;;;;27.98;15.70;;;;;;;-0.33;70.62;100827.66;1748665;81;26188;-73
2021/04/27 03:56:54;;;;;;;31.60;16.90;;;;;;;-0.31;70.63;100829.70;1720104;81;25950;-73
2021/04/27 03:59:22;;;;;;;24.92;14.07;;;;;;;-0.29;70.71;100831.27;1693851;82;28530;-73
2021/04/27 04:01:50;;;;;;;24.15;13.50;;;;;;;-0.26;70.76;100831.06;1708414;81;25833;-73
2021/04/27 04:04:17;;;;;;;23.60;13.20;;;;;;;-0.23;70.83;100834.77;1748020;81;25717;-74
2021/04/27 04:06:55;;;;;;;22.40;14.28;;;;;;;-0.20;70.87;100837.19;1702910;81;25752;-74
2021/04/27 04:09:32;;;;;;;23.60;14.65;;;;;;;-0.11;71.09;100834.36;1862359;75;25647;-74
2021/04/27 04:12:11;;;;;;;26.17;14.75;;;;;;;-0.13;71.48;100837.58;1794191;78;25837;-77
2021/04/27 04:14:38;;;;;;;26.57;14.50;;;;;;;-0.15;71.85;100842.94;1765455;80;27525;-77
2021/04/27 04:17:10;;;;;;;25.90;15.43;;;;;;;-0.15;71.85;100842.94;1705891;81;25773;-74
2021/04/27 04:19:39;;;;;;;25.82;14.63;;;;;;;-0.09;72.36;100844.30;1750729;79;26498;-74
2021/04/27 04:22:07;;;;;;;25.23;14.58;;;;;;;-0.05;72.41;100841.33;1753048;81;25730;-72
2021/04/27 04:24:48;;;;;;;26.35;15.10;;;;;;;0.09;72.38;100842.92;1836990;77;25804;-73
2021/04/27 04:27:15;;;;;;;25.92;15.45;;;;;;;0.11;72.30;100848.09;1742488;78;25826;-74
2021/04/27 04:29:45;;;;;;;29.85;16.60;;;;;;;0.16;72.25;100849.42;1793635;78;28514;-73
2021/04/27 04:32:38;;;;;;;28.45;15.55;;;;;;;0.31;72.38;100850.06;1791591;79;25734;-74
2021/04/27 04:35:27;;;;;;;26.82;16.73;;;;;;;0.32;72.32;100852.56;1771601;80;25849;-74
2021/04/27 04:38:14;;;;;;;29.80;16.93;;;;;;;0.39;72.17;100853.80;1737910;80;27608;-74
2021/04/27 04:41:00;;;;;;;28.75;16.48;;;;;;;0.46;72.49;100855.48;1721772;81;25858;-73
2021/04/27 04:43:46;;;;;;;28.55;16.93;;;;;;;0.52;72.54;100857.18;1684497;81;25754;-74
2021/04/27 04:46:32;;;;;;;30.23;16.45;;;;;;;0.60;72.72;100860.06;1728567;81;25749;-74
2021/04/27 04:49:08;;;;;;;28.80;17.05;;;;;;;0.68;72.64;100855.55;1732127;81;25774;-75
2021/04/27 04:51:54;;;;;;;29.65;16.32;;;;;;;0.73;72.74;100858.64;1691944;81;27605;-74
2021/04/27 04:54:31;;;;;;;25.27;16.50;;;;;;;0.87;72.77;100863.72;1793548;79;25739;-74
2021/04/27 04:57:00;;;;;;;28.98;16.85;;;;;;;0.88;73.13;100866.70;1727845;80;25799;-74
2021/04/27 04:59:28;;;;;;;32.25;17.90;;;;;;;0.90;73.38;100860.82;1764654;80;27530;-74
2021/04/27 05:01:55;;;;;;;29.50;16.85;;;;;;;0.92;73.79;100868.64;1689663;81;25839;-74
2021/04/27 05:04:38;;;;;;;29.02;16.97;;;;;;;0.90;73.72;100867.92;1684442;81;25946;-76
2021/04/27 05:07:20;;;;;;;24.18;14.87;;;;;;;0.90;74.00;100866.59;1794468;79;26294;-73
2021/04/27 05:10:06;;;;;;;27.52;16.77;;;;;;;0.88;74.12;100862.74;1733303;80;25839;-74
2021/04/27 05:12:39;;;;;;;27.50;17.00;;;;;;;0.91;74.48;100863.83;1769975;80;27592;-73
2021/04/27 05:15:14;;;;;;;27.37;16.80;;;;;;;1.00;74.50;100867.08;1709542;80;25575;-74
2021/04/27 05:17:42;;;;;;;27.40;17.37;;;;;;;1.13;74.45;100853.77;1744912;80;25835;-74
2021/04/27 05:20:10;;;;;;;28.38;16.57;;;;;;;1.24;74.28;100855.91;1744410;80;25922;-74
2021/04/27 05:22:39;;;;;;;27.70;17.32;;;;;;;1.38;74.08;100855.67;1745166;80;26029;-75
2021/04/27 05:25:08;;;;;;;28.00;16.87;;;;;;;1.49;74.07;100860.94;1725616;80;27547;-74
2021/04/27 05:27:37;;;;;;;25.08;15.53;;;;;;;1.61;73.95;100855.61;1732145;80;26057;-74
2021/04/27 05:30:06;;;;;;;28.95;15.83;;;;;;;1.68;73.75;100851.52;1742268;80;26564;-75
2021/04/27 05:32:33;;;;;;;31.23;17.85;;;;;;;1.78;73.72;100857.73;1772856;80;25774;-74
2021/04/27 05:35:01;;;;;;;28.73;16.90;;;;;;;1.90;73.87;100858.92;1713902;80;26357;-75
2021/04/27 05:37:28;;;;;;;27.02;16.20;;;;;;;2.01;73.89;100859.36;1720684;80;27539;-75
2021/04/27 05:39:56;;;;;;;26.33;15.83;;;;;;;2.15;73.74;100865.19;1722755;80;26535;-74
2021/04/27 05:42:23;;;;;;;22.90;14.28;;;;;;;2.28;73.54;100867.64;1777596;80;25768;-73
2021/04/27 05:44:50;;;;;;;22.55;14.23;;;;;;;2.39;73.46;100870.72;1728839;81;25837;-74
2021/04/27 05:47:18;;;;;;;24.18;13.15;;;;;;;2.48;73.75;100867.31;1710520;80;25847;-75
2021/04/27 05:49:45;;;;;;;21.50;12.90;;;;;;;2.58;73.39;100869.05;1731301;80;28264;-75
2021/04/27 05:52:12;;;;;;;21.35;13.05;;;;;;;2.69;73.35;100878.72;1779042;80;25778;-80
2021/04/27 05:54:40;;;;;;;21.17;13.72;;;;;;;2.79;73.22;100875.64;1722118;80;26007;-75
2021/04/27 05:57:07;;;;;;;23.85;11.28;;;;;;;2.87;72.79;100877.98;1718727;80;25780;-75
2021/04/27 05:59:35;;;;;;;13.05;9.10;;;;;;;3.00;72.58;100873.81;1732084;80;25381;-77
2021/04/27 06:02:02;;;;;;;15.93;9.55;;;;;;;3.11;71.66;100880.34;1751853;80;28429;-74
2021/04/27 06:04:29;;;;;;;20.68;11.18;;;;;;;3.22;71.20;100877.61;1700346;80;25802;-74
2021/04/27 06:06:57;;;;;;;14.80;10.08;;;;;;;3.34;70.98;100877.02;1721651;80;25803;-74
2021/04/27 06:09:26;;;;;;;16.05;10.43;;;;;;;3.42;70.71;100879.86;1760402;80;26231;-75
2021/04/27 06:11:55;;;;;;;17.92;9.68;;;;;;;3.53;70.90;100882.41;1742679;81;25766;-75
2021/04/27 06:14:23;;;;;;;13.40;7.62;;;;;;;3.64;70.49;100885.77;1681244;81;27723;-74
2021/04/27 06:16:50;;;;;;;10.08;6.05;;;;;;;3.74;69.75;100885.30;1693617;81;26034;-75
2021/04/27 06:19:17;;;;;;;9.55;6.03;;;;;;;3.84;68.91;100878.70;1719957;81;25801;-74
2021/04/27 06:21:46;;;;;;;10.28;6.05;;;;;;;3.94;68.81;100879.55;1739851;81;25895;-75
2021/04/27 06:24:14;;;;;;;11.10;8.18;;;;;;;4.04;68.67;100884.39;1673253;81;26471;-75
2021/04/27 06:26:41;;;;;;;12.10;9.13;;;;;;;4.17;69.11;100880.14;1696615;81;27649;-75
2021/04/27 06:29:09;;;;;;;16.97;9.20;;;;;;;4.31;69.27;100877.06;1697432;81;26255;-74
2021/04/27 06:31:36;;;;;;;9.73;6.33;;;;;;;4.43;69.30;100888.70;1739102;81;25886;-75
2021/04/27 06:34:05;;;;;;;8.50;5.58;;;;;;;4.55;68.94;100882.78;1696932;81;26444;-75
2021/04/27 06:36:33;;;;;;;7.78;4.50;;;;;;;4.66;67.98;100889.27;1700814;81;25750;-74
2021/04/27 06:39:03;;;;;;;4.83;3.42;;;;;;;4.77;67.43;100886.94;1727224;81;27305;-74
2021/04/27 06:41:32;;;;;;;6.20;4.92;;;;;;;4.88;66.47;100886.75;1728758;81;25821;-74
2021/04/27 06:44:02;;;;;;;5.62;3.45;;;;;;;4.95;65.61;100887.86;1678727;83;25844;-74
2021/04/27 06:46:30;;;;;;;7.95;5.00;;;;;;;5.05;64.89;100888.66;1701896;81;26114;-75
2021/04/27 06:48:58;;;;;;;10.08;5.40;;;;;;;5.12;65.40;100889.77;1722860;81;25959;-74
2021/04/27 06:51:26;;;;;;;8.60;5.58;;;;;;;5.20;65.04;100890.72;1736110;81;28867;-74
2021/04/27 06:53:55;;;;;;;12.75;6.47;;;;;;;5.25;64.95;100890.29;1670369;81;25805;-74
2021/04/27 06:56:22;;;;;;;10.98;7.03;;;;;;;5.31;65.53;100886.56;1696533;81;25888;-75
2021/04/27 06:58:50;;;;;;;12.33;7.40;;;;;;;5.44;65.62;100897.70;1711262;81;26166;-75
2021/04/27 07:01:17;;;;;;;7.67;5.62;;;;;;;5.55;64.95;100893.16;1738562;81;25764;-74
2021/04/27 07:03:48;;;;;;;5.67;3.70;;;;;;;5.61;63.94;100889.91;1699645;81;27612;-73
2021/04/27 07:06:14;;;;;;;9.65;3.50;;;;;;;5.66;61.62;100889.83;1725950;81;26102;-75
2021/04/27 07:08:43;;;;;;;6.95;3.58;;;;;;;5.72;61.84;100887.06;1720437;81;25878;-73
2021/04/27 07:11:10;;;;;;;6.67;3.80;;;;;;;5.80;61.30;100891.97;1732439;81;25883;-74
2021/04/27 07:13:37;;;;;;;5.03;3.10;;;;;;;5.87;60.82;100885.12;1693954;81;25748;-75
2021/04/27 07:16:05;;;;;;;5.92;3.87;;;;;;;5.94;60.35;100883.55;1709602;81;27549;-74
2021/04/27 07:18:32;;;;;;;5.28;3.10;;;;;;;6.01;59.38;100882.42;1736971;81;25909;-74
2021/04/27 07:21:00;;;;;;;4.33;2.85;;;;;;;6.05;59.50;100888.62;1738915;81;25821;-76
2021/04/27 07:23:28;;;;;;;3.30;2.55;;;;;;;6.08;58.36;100884.34;1700013;81;25865;-75
2021/04/27 07:25:56;;;;;;;6.22;3.92;;;;;;;6.14;56.57;100883.73;1691797;81;26093;-74
2021/04/27 07:28:23;;;;;;;11.63;4.78;;;;;;;6.19;57.81;100891.26;1686668;81;27358;-74
2021/04/27 07:30:51;;;;;;;5.53;2.90;;;;;;;6.25;56.78;100886.66;1721610;81;26123;-75
2021/04/27 07:33:19;;;;;;;2.83;2.52;;;;;;;6.34;55.98;100885.75;1694809;81;25807;-74
2021/04/27 07:35:46;;;;;;;4.00;2.42;;;;;;;6.41;55.17;100889.48;1689283;83;26459;-74
2021/04/27 07:38:13;;;;;;;2.92;2.08;;;;;;;6.45;56.75;100881.53;1708458;81;26379;-75
2021/04/27 07:40:41;;;;;;;3.87;2.30;;;;;;;6.58;55.94;100890.45;1741981;81;27534;-75
2021/04/27 07:43:08;;;;;;;3.12;2.10;;;;;;;6.63;53.47;100882.33;1695845;81;25737;-75
2021/04/27 07:45:36;;;;;;;2.50;1.80;;;;;;;6.60;53.27;100889.80;1685661;83;25830;-74
2021/04/27 07:48:06;;;;;;;2.67;1.72;;;;;;;6.61;52.95;100886.97;1706567;81;25798;-75
2021/04/27 07:50:35;;;;;;;1.92;1.72;;;;;;;6.63;53.14;100881.00;1744590;81;26296;-75
2021/04/27 07:53:05;;;;;;;4.40;2.35;;;;;;;6.71;53.80;100882.91;1697897;81;29072;-75
2021/04/27 07:55:32;;;;;;;4.10;2.52;;;;;;;6.73;51.32;100880.44;1713471;81;25921;-74
2021/04/27 07:58:00;;;;;;;2.92;2.17;;;;;;;6.72;52.28;100881.41;1713473;81;26091;-75
2021/04/27 08:00:28;;;;;;;3.47;2.47;;;;;;;6.78;51.20;100882.60;1734585;81;25890;-74
2021/04/27 08:02:55;;;;;;;2.77;2.20;;;;;;;6.79;51.64;100884.29;1674314;81;25904;-74
2021/04/27 08:05:23;;;;;;;5.25;2.60;;;;;;;6.87;52.46;100883.01;1693109;81;27554;-75
2021/04/27 08:07:50;;;;;;;2.77;1.90;;;;;;;6.96;51.37;100888.25;1736852;81;25887;-76
2021/04/27 08:10:18;;;;;;;3.90;2.20;;;;;;;6.98;50.00;100880.94;1743967;81;25793;-74
2021/04/27 08:12:48;;;;;;;4.70;2.25;;;;;;;7.05;50.87;100878.48;1688197;81;25897;-75
2021/04/27 08:15:23;;;;;;;2.90;2.40;;;;;;;7.12;51.21;100878.69;1704579;81;26206;-75
2021/04/27 08:17:50;;;;;;;3.42;2.25;;;;;;;7.24;51.36;100880.92;1715273;81;28329;-75
2021/04/27 08:20:19;;;;;;;4.97;3.45;;;;;;;7.41;50.88;100875.17;1734312;79;26832;-75
2021/04/27 08:22:47;;;;;;;6.00;3.17;;;;;;;7.55;50.58;100873.22;1685445;81;25371;-75
2021/04/27 08:25:15;;;;;;;6.10;3.33;;;;;;;7.65;50.35;100872.61;1702613;81;26598;-75
2021/04/27 08:27:43;;;;;;;4.47;2.92;;;;;;;7.73;50.70;100869.48;1730763;81;26036;-74
2021/04/27 08:30:12;;;;;;;4.55;2.55;;;;;;;7.88;50.82;100868.84;1737660;81;28431;-75
2021/04/27 08:32:39;;;;;;;6.50;2.65;;;;;;;7.98;49.92;100865.03;1680953;82;25818;-75
2021/04/27 08:35:08;;;;;;;5.85;2.85;;;;;;;8.04;48.26;100863.03;1693209;83;25700;-74
2021/04/27 08:37:37;;;;;;;6.83;3.02;;;;;;;8.03;47.94;100865.88;1725398;81;25801;-75
2021/04/27 08:40:08;;;;;;;3.37;2.67;;;;;;;8.05;49.17;100864.72;1728546;81;25666;-74
2021/04/27 08:42:36;;;;;;;3.92;2.50;;;;;;;8.13;49.08;100863.88;1735212;81;27550;-74
2021/04/27 08:45:07;;;;;;;4.90;2.85;;;;;;;8.30;50.00;100865.60;1683318;82;26154;-81
2021/04/27 08:47:35;;;;;;;3.67;2.85;;;;;;;8.44;48.45;100868.97;1722351;81;25810;-80
2021/04/27 08:50:07;;;;;;;5.03;2.95;;;;;;;8.54;47.56;100866.46;1734601;81;25953;-80
2021/04/27 08:52:34;;;;;;;8.20;3.77;;;;;;;8.62;46.29;100868.81;1740982;81;25385;-79
2021/04/27 08:55:01;;;;;;;5.65;3.30;;;;;;;8.73;47.18;100875.96;1669101;83;27547;-80
2021/04/27 08:57:29;;;;;;;3.40;2.70;;;;;;;8.87;47.78;100875.30;1665922;81;26393;-80
2021/04/27 08:59:56;;;;;;;3.45;2.60;;;;;;;8.89;46.02;100879.97;1725673;81;26533;-80
2021/04/27 09:02:31;;;;;;;4.05;2.77;;;;;;;8.76;45.39;100870.30;1737506;81;26324;-80
2021/04/27 09:04:58;;;;;;;3.05;2.15;;;;;;;8.63;46.13;100874.47;1685227;81;25762;-80
2021/04/27 09:07:27;;;;;;;2.50;2.22;;;;;;;8.52;43.57;100864.46;1725343;81;27529;-80
2021/04/27 09:09:59;;;;;;;3.83;2.83;;;;;;;8.42;45.67;100866.47;1734245;81;25762;-74
2021/04/27 09:12:29;;;;;;;5.92;2.37;;;;;;;8.44;46.03;100871.14;1747726;80;25761;-76
2021/04/27 09:14:59;;;;;;;4.53;2.50;;;;;;;8.48;45.95;100865.80;1707405;81;26527;-77
2021/04/27 09:17:29;;;;;;;2.65;1.80;;;;;;;8.51;45.47;100867.31;1704758;81;25764;-77
2021/04/27 09:19:58;;;;;;;3.20;1.77;;;;;;;8.57;44.90;100854.63;1744616;80;33494;-77
2021/04/27 09:22:33;;;;;;;2.37;1.65;;;;;;;8.62;46.12;100864.28;1746927;81;25837;-76
2021/04/27 09:25:07;;;;;;;2.47;1.85;;;;;;;8.83;46.37;100861.92;1728746;81;25794;-76
2021/04/27 09:27:45;;;;;;;2.85;1.30;;;;;;;9.07;45.19;100859.20;1692669;81;25951;-76
2021/04/27 09:30:27;;;;;;;4.60;1.82;;;;;;;9.20;45.89;100853.33;1742752;81;25922;-76
2021/04/27 09:32:59;;;;;;;3.72;1.80;;;;;;;9.42;46.15;100854.42;1742587;81;27542;-77
2021/04/27 09:35:40;;;;;;;1.82;1.60;;;;;;;9.44;45.16;100858.60;1720856;81;26102;-76
2021/04/27 09:38:17;;;;;;;2.40;1.50;;;;;;;9.41;44.43;100857.59;1721287;81;25720;-76
2021/04/27 09:40:54;;;;;;;3.05;2.00;;;;;;;9.38;43.80;100858.45;1727099;82;25841;-76
2021/04/27 09:43:31;;;;;;;3.83;1.90;;;;;;;9.30;43.48;100853.46;1744494;81;26468;-76
2021/04/27 09:46:03;;;;;;;2.00;1.80;;;;;;;9.18;42.71;100848.66;1721858;81;27824;-76
2021/04/27 09:48:38;;;;;;;2.58;1.92;;;;;;;9.07;43.36;100857.87;1705687;81;25786;-76
2021/04/27 09:51:18;;;;;;;2.80;1.90;;;;;;;9.06;43.29;100853.55;1743668;81;25943;-79
2021/04/27 09:53:51;;;;;;;3.37;1.67;;;;;;;9.14;43.63;100854.86;1745886;81;26470;-76
2021/04/27 09:56:50;;;;;;;3.22;1.75;;;;;;;9.28;42.32;100848.79;1719599;81;26117;-76
2021/04/27 09:59:27;;;;;;;4.05;1.70;;;;;;;9.28;43.12;100847.98;1703952;81;27540;-77
2021/04/27 10:01:57;;;;;;;2.62;1.72;;;;;;;9.30;42.83;100845.97;1720097;81;25878;-76
2021/04/27 10:04:30;;;;;;;3.37;2.02;;;;;;;9.28;42.51;100850.13;1748476;81;25367;-77
2021/04/27 10:07:00;;;;;;;2.75;1.92;;;;;;;9.30;42.80;100852.12;1741788;81;26483;-75
2021/04/27 10:09:28;;;;;;;;;;;;;;;9.27;41.77;100851.15;1707536;81;25810;-75
2021/04/27 10:11:58;;;;;;;6.33;3.47;;;;;;;9.21;41.31;100848.33;1746235;80;27346;-75
2021/04/27 10:14:25;;;;;;;6.75;3.80;;;;;;;9.18;43.20;100853.51;1743456;81;25842;-75
2021/04/27 10:16:53;;;;;;;4.33;2.20;;;;;;;9.16;41.91;100840.82;1725402;82;25899;-75
2021/04/27 10:19:21;;;;;;;4.00;2.37;;;;;;;9.11;41.11;100847.17;1721299;82;26364;-75
2021/04/27 10:21:51;;;;;;;5.12;2.75;;;;;;;9.06;41.08;100847.36;1722065;81;26175;-75
2021/04/27 10:24:24;;;;;;;4.83;2.62;;;;;;;9.07;42.09;100849.02;1724137;81;27528;-75
2021/04/27 10:26:52;;;;;;;2.75;1.95;;;;;;;9.21;42.14;100844.32;1744736;81;25714;-75
2021/04/27 10:29:25;;;;;;;5.15;2.37;;;;;;;9.39;42.00;100841.42;1717326;79;25855;-74
2021/04/27 10:32:24;;;;;;;2.20;1.47;;;;;;;9.47;40.91;100843.56;1731814;81;26436;-74
2021/04/27 10:35:05;;;;;;;2.40;1.80;;;;;;;9.36;40.34;100836.41;1691294;83;25870;-75
2021/04/27 10:38:09;;;;;;;2.33;2.07;;;;;;;9.28;40.32;100840.77;1692135;82;27616;-74
2021/04/27 10:41:01;;;;;;;2.35;1.80;;;;;;;9.24;40.78;100838.61;1715332;82;26088;-74
2021/04/27 10:43:33;;;;;;;5.03;2.70;;;;;;;9.27;41.02;100839.62;1690059;82;25757;-73
2021/04/27 10:46:07;;;;;;;3.27;2.05;;;;;;;9.31;41.12;100837.77;1686658;82;25869;-74
2021/04/27 10:48:44;;;;;;;3.12;1.95;;;;;;;9.51;42.09;100826.66;1714840;81;25827;-74
2021/04/27 10:51:34;;;;;;;5.10;2.20;;;;;;;9.73;42.21;100825.36;1751583;81;28498;-74
2021/04/27 10:54:30;;;;;;;4.30;2.03;;;;;;;9.89;42.67;100832.47;1757858;80;26010;-74
2021/04/27 10:57:09;;;;;;;2.75;2.15;;;;;;;9.95;41.78;100833.09;1706873;83;25804;-73
2021/04/27 11:00:02;;;;;;;3.60;2.42;;;;;;;9.89;39.34;100832.47;1712147;82;25649;-74
2021/04/27 11:02:31;;;;;;;3.40;2.35;;;;;;;9.71;41.09;100829.24;1713054;83;26060;-74
2021/04/27 11:05:02;;;;;;;5.75;2.80;;;;;;;9.70;41.34;100822.21;1714216;81;27324;-74
2021/04/27 11:07:34;;;;;;;3.47;2.60;;;;;;;9.67;41.09;100820.72;1675401;83;26486;-73
2021/04/27 11:10:07;;;;;;;3.10;2.15;;;;;;;9.77;41.37;100823.19;1643696;83;25702;-74
2021/04/27 11:12:44;;;;;;;3.37;2.17;;;;;;;9.99;40.16;100821.86;1700020;83;25654;-73
2021/04/27 11:15:26;;;;;;;2.72;2.10;;;;;;;10.16;40.82;100821.27;1668465;83;26549;-73
2021/04/27 11:21:13;;;;;;;4.12;1.92;;;;;;;10.54;40.50;100820.81;1796229;79;26205;-74
2021/04/27 11:23:55;;;;;;;2.35;1.82;;;;;;;10.56;40.38;100816.91;1737964;80;25616;-74
2021/04/27 11:26:39;;;;;;;2.17;1.50;;;;;;;10.66;40.02;100813.98;1764029;80;27512;-74
2021/04/27 11:29:20;;;;;;;2.60;1.98;;;;;;;10.61;38.78;100813.19;1748203;80;25865;-74
2021/04/27 11:32:15;;;;;;;2.30;1.87;;;;;;;10.49;38.45;100809.80;1666989;82;25547;-74
2021/04/27 11:34:56;;;;;;;1.67;1.50;;;;;;;10.47;38.80;100811.83;1682160;84;25855;-74
2021/04/27 11:37:46;;;;;;;1.47;1.22;;;;;;;10.39;38.09;100818.06;1691834;84;26099;-74
2021/04/27 11:40:27;;;;;;;1.75;1.50;;;;;;;10.32;38.82;100806.43;1683240;83;27618;-74
2021/04/27 11:43:06;;;;;;;4.95;1.80;;;;;;;10.29;38.74;100811.29;1683396;83;26197;-75
2021/04/27 11:45:37;;;;;;;3.20;2.02;;;;;;;10.19;39.38;100812.89;1683699;83;25669;-74